sensor_id;sensor_type;location;lat;lon;timestamp;temperature;humidity
7234;DHT22;3658;47.992;10.158;2023-04-01T00:00:32;21.20;37.60
7234;DHT22;3658;47.992;10.158;2023-04-01T00:02:59;21.20;37.50
7234;DHT22;3658;47.992;10.158;2023-04-01T00:05:26;21.20;37.50
7234;DHT22;3658;47.992;10.158;2023-04-01T00:07:53;21.20;37.50
7234;DHT22;3658;47.992;10.158;2023-04-01T00:10:22;21.20;37.50
7234;DHT22;3658;47.992;10.158;2023-04-01T00:12:49;21.20;37.50
7234;DHT22;3658;47.992;10.158;2023-04-01T00:15:15;21.20;37.50
7234;DHT22;3658;47.992;10.158;2023-04-01T00:17:42;21.20;37.50
7234;DHT22;3658;47.992;10.158;2023-04-01T00:20:11;21.20;37.50
7234;DHT22;3658;47.992;10.158;2023-04-01T00:22:39;21.20;37.40
7234;DHT22;3658;47.992;10.158;2023-04-01T00:25:07;21.20;37.50
7234;DHT22;3658;47.992;10.158;2023-04-01T00:27:35;21.20;37.40
7234;DHT22;3658;47.992;10.158;2023-04-01T00:30:03;21.20;37.40
7234;DHT22;3658;47.992;10.158;2023-04-01T00:32:30;21.20;37.40
7234;DHT22;3658;47.992;10.158;2023-04-01T00:34:57;21.20;37.50
7234;DHT22;3658;47.992;10.158;2023-04-01T00:37:25;21.20;37.40
7234;DHT22;3658;47.992;10.158;2023-04-01T00:39:52;21.20;37.40
7234;DHT22;3658;47.992;10.158;2023-04-01T00:42:19;21.20;37.40
7234;DHT22;3658;47.992;10.158;2023-04-01T00:44:51;21.20;37.40
7234;DHT22;3658;47.992;10.158;2023-04-01T00:47:18;21.20;37.40
7234;DHT22;3658;47.992;10.158;2023-04-01T00:49:47;21.20;37.40
7234;DHT22;3658;47.992;10.158;2023-04-01T00:52:18;21.20;37.40
7234;DHT22;3658;47.992;10.158;2023-04-01T00:54:51;21.20;37.40
7234;DHT22;3658;47.992;10.158;2023-04-01T00:57:23;21.30;37.40
7234;DHT22;3658;47.992;10.158;2023-04-01T00:59:54;21.20;37.30
7234;DHT22;3658;47.992;10.158;2023-04-01T01:02:22;21.20;37.30
7234;DHT22;3658;47.992;10.158;2023-04-01T01:04:49;21.20;37.30
7234;DHT22;3658;47.992;10.158;2023-04-01T01:07:22;21.20;37.30
7234;DHT22;3658;47.992;10.158;2023-04-01T01:09:58;21.20;37.30
7234;DHT22;3658;47.992;10.158;2023-04-01T01:12:33;21.30;37.40
7234;DHT22;3658;47.992;10.158;2023-04-01T01:15:10;21.30;37.40
7234;DHT22;3658;47.992;10.158;2023-04-01T01:17:50;21.30;37.30
7234;DHT22;3658;47.992;10.158;2023-04-01T01:23:47;21.20;37.20
7234;DHT22;3658;47.992;10.158;2023-04-01T01:26:46;21.20;37.30
7234;DHT22;3658;47.992;10.158;2023-04-01T01:29:40;21.20;37.20
7234;DHT22;3658;47.992;10.158;2023-04-01T01:32:23;21.30;37.30
7234;DHT22;3658;47.992;10.158;2023-04-01T01:34:55;21.30;37.30
7234;DHT22;3658;47.992;10.158;2023-04-01T01:37:26;21.30;37.30
7234;DHT22;3658;47.992;10.158;2023-04-01T01:39:56;21.20;37.20
7234;DHT22;3658;47.992;10.158;2023-04-01T01:42:26;21.30;37.70
7234;DHT22;3658;47.992;10.158;2023-04-01T01:44:55;21.20;37.20
7234;DHT22;3658;47.992;10.158;2023-04-01T01:47:23;21.30;37.20
7234;DHT22;3658;47.992;10.158;2023-04-01T01:49:52;21.20;37.20
7234;DHT22;3658;47.992;10.158;2023-04-01T01:52:19;21.30;37.90
7234;DHT22;3658;47.992;10.158;2023-04-01T01:54:49;21.30;37.20
7234;DHT22;3658;47.992;10.158;2023-04-01T01:57:17;21.30;37.30
7234;DHT22;3658;47.992;10.158;2023-04-01T01:59:47;21.30;37.30
7234;DHT22;3658;47.992;10.158;2023-04-01T02:02:15;21.30;37.20
7234;DHT22;3658;47.992;10.158;2023-04-01T02:04:44;21.20;37.10
7234;DHT22;3658;47.992;10.158;2023-04-01T02:07:18;21.30;37.30
7234;DHT22;3658;47.992;10.158;2023-04-01T02:09:45;21.30;37.20
7234;DHT22;3658;47.992;10.158;2023-04-01T02:12:15;21.30;37.30
7234;DHT22;3658;47.992;10.158;2023-04-01T02:14:45;21.30;37.20
7234;DHT22;3658;47.992;10.158;2023-04-01T02:17:16;21.30;37.20
7234;DHT22;3658;47.992;10.158;2023-04-01T02:19:48;21.20;37.10
7234;DHT22;3658;47.992;10.158;2023-04-01T02:22:19;21.20;37.10
7234;DHT22;3658;47.992;10.158;2023-04-01T02:24:47;21.20;37.70
7234;DHT22;3658;47.992;10.158;2023-04-01T02:27:17;21.20;37.10
7234;DHT22;3658;47.992;10.158;2023-04-01T02:29:45;21.30;37.10
7234;DHT22;3658;47.992;10.158;2023-04-01T02:32:13;21.20;37.10
7234;DHT22;3658;47.992;10.158;2023-04-01T02:34:41;21.30;37.10
7234;DHT22;3658;47.992;10.158;2023-04-01T02:37:09;21.30;37.10
7234;DHT22;3658;47.992;10.158;2023-04-01T02:39:37;21.30;37.20
7234;DHT22;3658;47.992;10.158;2023-04-01T02:42:04;21.30;37.20
7234;DHT22;3658;47.992;10.158;2023-04-01T02:44:32;21.30;37.20
7234;DHT22;3658;47.992;10.158;2023-04-01T02:46:59;21.30;37.10
7234;DHT22;3658;47.992;10.158;2023-04-01T02:49:26;21.20;37.10
7234;DHT22;3658;47.992;10.158;2023-04-01T02:51:53;21.30;37.10
7234;DHT22;3658;47.992;10.158;2023-04-01T02:54:20;21.30;37.10
7234;DHT22;3658;47.992;10.158;2023-04-01T02:56:47;21.30;37.10
7234;DHT22;3658;47.992;10.158;2023-04-01T02:59:14;21.30;37.10
7234;DHT22;3658;47.992;10.158;2023-04-01T03:01:43;21.30;37.00
7234;DHT22;3658;47.992;10.158;2023-04-01T03:04:10;21.30;37.10
7234;DHT22;3658;47.992;10.158;2023-04-01T03:06:37;21.30;37.00
7234;DHT22;3658;47.992;10.158;2023-04-01T03:09:05;21.30;37.00
7234;DHT22;3658;47.992;10.158;2023-04-01T03:11:33;21.30;37.00
7234;DHT22;3658;47.992;10.158;2023-04-01T03:14:00;21.30;37.00
7234;DHT22;3658;47.992;10.158;2023-04-01T03:16:27;21.30;37.00
7234;DHT22;3658;47.992;10.158;2023-04-01T03:18:55;21.30;37.00
7234;DHT22;3658;47.992;10.158;2023-04-01T03:21:24;21.20;36.90
7234;DHT22;3658;47.992;10.158;2023-04-01T03:23:52;21.30;37.00
7234;DHT22;3658;47.992;10.158;2023-04-01T03:26:19;21.30;37.00
7234;DHT22;3658;47.992;10.158;2023-04-01T03:28:47;21.20;36.90
7234;DHT22;3658;47.992;10.158;2023-04-01T03:31:14;21.30;37.00
7234;DHT22;3658;47.992;10.158;2023-04-01T03:33:41;21.30;37.00
7234;DHT22;3658;47.992;10.158;2023-04-01T03:36:10;21.30;37.00
7234;DHT22;3658;47.992;10.158;2023-04-01T03:38:38;21.30;36.90
7234;DHT22;3658;47.992;10.158;2023-04-01T03:41:06;21.30;36.90
7234;DHT22;3658;47.992;10.158;2023-04-01T03:43:33;21.30;36.90
7234;DHT22;3658;47.992;10.158;2023-04-01T03:46:00;21.30;36.90
7234;DHT22;3658;47.992;10.158;2023-04-01T03:48:27;21.30;36.90
7234;DHT22;3658;47.992;10.158;2023-04-01T03:50:54;21.30;37.00
7234;DHT22;3658;47.992;10.158;2023-04-01T03:53:22;21.20;36.90
7234;DHT22;3658;47.992;10.158;2023-04-01T03:55:50;21.30;36.90
7234;DHT22;3658;47.992;10.158;2023-04-01T03:58:17;21.30;36.90
7234;DHT22;3658;47.992;10.158;2023-04-01T04:00:44;21.30;36.90
7234;DHT22;3658;47.992;10.158;2023-04-01T04:03:11;21.30;36.90
7234;DHT22;3658;47.992;10.158;2023-04-01T04:05:46;21.20;36.70
7234;DHT22;3658;47.992;10.158;2023-04-01T04:08:13;21.30;36.90
7234;DHT22;3658;47.992;10.158;2023-04-01T04:10:41;21.30;36.80
7234;DHT22;3658;47.992;10.158;2023-04-01T04:13:08;21.30;36.90
7234;DHT22;3658;47.992;10.158;2023-04-01T04:15:35;21.30;36.80
7234;DHT22;3658;47.992;10.158;2023-04-01T04:18:02;21.30;36.80
7234;DHT22;3658;47.992;10.158;2023-04-01T04:20:29;21.30;36.80
7234;DHT22;3658;47.992;10.158;2023-04-01T04:22:56;21.30;36.80
7234;DHT22;3658;47.992;10.158;2023-04-01T04:25:23;21.30;36.80
7234;DHT22;3658;47.992;10.158;2023-04-01T04:27:51;21.30;36.80
7234;DHT22;3658;47.992;10.158;2023-04-01T04:30:18;21.30;36.80
7234;DHT22;3658;47.992;10.158;2023-04-01T04:32:45;21.30;36.80
7234;DHT22;3658;47.992;10.158;2023-04-01T04:35:12;21.30;36.80
7234;DHT22;3658;47.992;10.158;2023-04-01T04:37:40;21.30;36.80
7234;DHT22;3658;47.992;10.158;2023-04-01T04:40:08;21.30;36.70
7234;DHT22;3658;47.992;10.158;2023-04-01T04:42:35;21.30;36.80
7234;DHT22;3658;47.992;10.158;2023-04-01T04:45:03;21.30;36.80
7234;DHT22;3658;47.992;10.158;2023-04-01T04:47:31;21.30;36.70
7234;DHT22;3658;47.992;10.158;2023-04-01T04:49:58;21.30;36.70
7234;DHT22;3658;47.992;10.158;2023-04-01T04:52:25;21.20;36.70
7234;DHT22;3658;47.992;10.158;2023-04-01T04:54:52;21.30;36.70
7234;DHT22;3658;47.992;10.158;2023-04-01T04:57:19;21.30;36.70
7234;DHT22;3658;47.992;10.158;2023-04-01T04:59:46;21.30;36.70
7234;DHT22;3658;47.992;10.158;2023-04-01T05:02:14;21.30;36.70
7234;DHT22;3658;47.992;10.158;2023-04-01T05:04:41;21.30;36.70
7234;DHT22;3658;47.992;10.158;2023-04-01T05:07:08;21.30;36.70
7234;DHT22;3658;47.992;10.158;2023-04-01T05:09:35;21.20;36.60
7234;DHT22;3658;47.992;10.158;2023-04-01T05:12:02;21.30;36.70
7234;DHT22;3658;47.992;10.158;2023-04-01T05:14:29;21.30;36.70
7234;DHT22;3658;47.992;10.158;2023-04-01T05:16:56;21.30;36.70
7234;DHT22;3658;47.992;10.158;2023-04-01T05:19:24;21.30;36.70
7234;DHT22;3658;47.992;10.158;2023-04-01T05:21:51;21.30;36.70
7234;DHT22;3658;47.992;10.158;2023-04-01T05:24:19;21.30;36.70
7234;DHT22;3658;47.992;10.158;2023-04-01T05:26:46;21.30;36.70
7234;DHT22;3658;47.992;10.158;2023-04-01T05:29:13;21.30;36.70
7234;DHT22;3658;47.992;10.158;2023-04-01T05:31:40;21.30;36.70
7234;DHT22;3658;47.992;10.158;2023-04-01T05:34:07;21.30;36.70
7234;DHT22;3658;47.992;10.158;2023-04-01T05:36:35;21.30;36.70
7234;DHT22;3658;47.992;10.158;2023-04-01T05:39:02;21.30;36.70
7234;DHT22;3658;47.992;10.158;2023-04-01T05:41:30;21.30;37.00
7234;DHT22;3658;47.992;10.158;2023-04-01T05:43:57;21.30;37.30
7234;DHT22;3658;47.992;10.158;2023-04-01T05:46:24;21.20;37.60
7234;DHT22;3658;47.992;10.158;2023-04-01T05:48:52;21.20;37.60
7234;DHT22;3658;47.992;10.158;2023-04-01T05:51:22;21.20;37.70
7234;DHT22;3658;47.992;10.158;2023-04-01T05:53:50;21.20;37.80
7234;DHT22;3658;47.992;10.158;2023-04-01T05:56:17;21.20;37.80
7234;DHT22;3658;47.992;10.158;2023-04-01T05:58:47;21.20;37.90
7234;DHT22;3658;47.992;10.158;2023-04-01T06:01:17;21.20;37.90
7234;DHT22;3658;47.992;10.158;2023-04-01T06:03:45;21.20;38.00
7234;DHT22;3658;47.992;10.158;2023-04-01T06:06:16;21.20;38.00
7234;DHT22;3658;47.992;10.158;2023-04-01T06:08:46;21.20;38.10
7234;DHT22;3658;47.992;10.158;2023-04-01T06:11:26;21.20;38.10
7234;DHT22;3658;47.992;10.158;2023-04-01T06:14:23;21.20;38.20
7234;DHT22;3658;47.992;10.158;2023-04-01T06:17:05;21.20;38.30
7234;DHT22;3658;47.992;10.158;2023-04-01T06:19:39;21.20;38.30
7234;DHT22;3658;47.992;10.158;2023-04-01T06:22:27;21.20;38.30
7234;DHT22;3658;47.992;10.158;2023-04-01T06:25:12;21.20;38.40
7234;DHT22;3658;47.992;10.158;2023-04-01T06:27:55;21.20;38.40
7234;DHT22;3658;47.992;10.158;2023-04-01T06:30:34;21.20;38.40
7234;DHT22;3658;47.992;10.158;2023-04-01T06:33:20;21.20;38.40
7234;DHT22;3658;47.992;10.158;2023-04-01T06:36:18;21.20;38.40
7234;DHT22;3658;47.992;10.158;2023-04-01T06:39:10;21.20;38.50
7234;DHT22;3658;47.992;10.158;2023-04-01T06:42:11;21.20;38.50
7234;DHT22;3658;47.992;10.158;2023-04-01T06:44:50;21.20;38.50
7234;DHT22;3658;47.992;10.158;2023-04-01T06:47:29;21.20;38.50
7234;DHT22;3658;47.992;10.158;2023-04-01T06:50:07;21.20;38.50
7234;DHT22;3658;47.992;10.158;2023-04-01T06:52:46;21.20;38.50
7234;DHT22;3658;47.992;10.158;2023-04-01T06:55:26;21.20;38.50
7234;DHT22;3658;47.992;10.158;2023-04-01T06:57:56;21.20;38.50
7234;DHT22;3658;47.992;10.158;2023-04-01T07:00:30;21.20;38.50
7234;DHT22;3658;47.992;10.158;2023-04-01T07:03:06;21.20;38.40
7234;DHT22;3658;47.992;10.158;2023-04-01T07:05:36;21.20;38.50
7234;DHT22;3658;47.992;10.158;2023-04-01T07:08:04;21.20;38.50
7234;DHT22;3658;47.992;10.158;2023-04-01T07:10:40;21.20;38.50
7234;DHT22;3658;47.992;10.158;2023-04-01T07:13:15;21.20;38.50
7234;DHT22;3658;47.992;10.158;2023-04-01T07:15:54;21.20;38.50
7234;DHT22;3658;47.992;10.158;2023-04-01T07:18:32;21.20;38.50
7234;DHT22;3658;47.992;10.158;2023-04-01T07:21:01;21.20;38.50
7234;DHT22;3658;47.992;10.158;2023-04-01T07:23:32;21.20;38.50
7234;DHT22;3658;47.992;10.158;2023-04-01T07:26:10;21.20;38.50
7234;DHT22;3658;47.992;10.158;2023-04-01T07:28:41;21.20;38.50
7234;DHT22;3658;47.992;10.158;2023-04-01T07:31:18;21.20;38.50
7234;DHT22;3658;47.992;10.158;2023-04-01T07:33:54;21.20;38.50
7234;DHT22;3658;47.992;10.158;2023-04-01T07:36:28;21.20;38.50
7234;DHT22;3658;47.992;10.158;2023-04-01T07:39:09;21.20;38.50
7234;DHT22;3658;47.992;10.158;2023-04-01T07:41:50;21.20;38.50
7234;DHT22;3658;47.992;10.158;2023-04-01T07:44:24;21.20;38.50
7234;DHT22;3658;47.992;10.158;2023-04-01T07:47:12;21.20;38.50
7234;DHT22;3658;47.992;10.158;2023-04-01T07:49:50;21.20;38.50
7234;DHT22;3658;47.992;10.158;2023-04-01T07:52:22;21.20;38.60
7234;DHT22;3658;47.992;10.158;2023-04-01T07:54:57;21.20;38.60
7234;DHT22;3658;47.992;10.158;2023-04-01T07:57:30;21.30;38.70
7234;DHT22;3658;47.992;10.158;2023-04-01T08:00:03;21.30;38.70
7234;DHT22;3658;47.992;10.158;2023-04-01T08:02:44;21.30;39.30
7234;DHT22;3658;47.992;10.158;2023-04-01T08:05:22;21.20;38.60
7234;DHT22;3658;47.992;10.158;2023-04-01T08:07:59;21.30;38.60
7234;DHT22;3658;47.992;10.158;2023-04-01T08:10:33;21.30;38.60
7234;DHT22;3658;47.992;10.158;2023-04-01T08:13:08;21.30;38.60
7234;DHT22;3658;47.992;10.158;2023-04-01T08:15:44;21.30;38.60
7234;DHT22;3658;47.992;10.158;2023-04-01T08:18:24;21.30;38.60
7234;DHT22;3658;47.992;10.158;2023-04-01T08:20:58;21.30;38.60
7234;DHT22;3658;47.992;10.158;2023-04-01T08:23:28;21.30;38.60
7234;DHT22;3658;47.992;10.158;2023-04-01T08:26:02;21.30;38.70
7234;DHT22;3658;47.992;10.158;2023-04-01T08:28:35;21.30;38.70
7234;DHT22;3658;47.992;10.158;2023-04-01T08:31:06;21.30;38.70
7234;DHT22;3658;47.992;10.158;2023-04-01T08:33:38;21.30;38.70
7234;DHT22;3658;47.992;10.158;2023-04-01T08:36:10;21.30;38.90
7234;DHT22;3658;47.992;10.158;2023-04-01T08:38:42;21.40;39.20
7234;DHT22;3658;47.992;10.158;2023-04-01T08:44:31;21.40;39.20
7234;DHT22;3658;47.992;10.158;2023-04-01T08:47:28;21.40;39.30
7234;DHT22;3658;47.992;10.158;2023-04-01T08:50:26;21.40;39.20
7234;DHT22;3658;47.992;10.158;2023-04-01T08:53:03;21.40;39.30
7234;DHT22;3658;47.992;10.158;2023-04-01T08:55:46;21.40;39.30
7234;DHT22;3658;47.992;10.158;2023-04-01T08:58:32;21.40;39.20
7234;DHT22;3658;47.992;10.158;2023-04-01T09:01:21;21.40;39.20
7234;DHT22;3658;47.992;10.158;2023-04-01T09:04:05;21.50;39.30
7234;DHT22;3658;47.992;10.158;2023-04-01T09:06:48;21.50;39.30
7234;DHT22;3658;47.992;10.158;2023-04-01T09:13:03;21.50;39.60
7234;DHT22;3658;47.992;10.158;2023-04-01T09:18:46;21.50;39.30
7234;DHT22;3658;47.992;10.158;2023-04-01T09:21:43;21.50;39.20
7234;DHT22;3658;47.992;10.158;2023-04-01T09:24:42;21.50;39.20
7234;DHT22;3658;47.992;10.158;2023-04-01T09:27:18;21.50;39.10
7234;DHT22;3658;47.992;10.158;2023-04-01T09:30:17;21.50;39.10
7234;DHT22;3658;47.992;10.158;2023-04-01T09:35:46;21.40;39.10
7234;DHT22;3658;47.992;10.158;2023-04-01T09:38:30;21.50;39.20
7234;DHT22;3658;47.992;10.158;2023-04-01T09:41:07;21.50;39.10
7234;DHT22;3658;47.992;10.158;2023-04-01T09:43:55;21.40;39.10
7234;DHT22;3658;47.992;10.158;2023-04-01T09:46:36;21.40;39.00
7234;DHT22;3658;47.992;10.158;2023-04-01T09:52:11;21.40;39.40
7234;DHT22;3658;47.992;10.158;2023-04-01T09:55:01;21.50;39.60
7234;DHT22;3658;47.992;10.158;2023-04-01T10:00:50;21.50;39.70
7234;DHT22;3658;47.992;10.158;2023-04-01T10:03:59;21.50;39.70
7234;DHT22;3658;47.992;10.158;2023-04-01T10:10:14;21.50;39.60
7234;DHT22;3658;47.992;10.158;2023-04-01T10:13:03;21.50;39.50
7234;DHT22;3658;47.992;10.158;2023-04-01T10:15:56;21.50;39.40
7234;DHT22;3658;47.992;10.158;2023-04-01T10:18:54;21.50;39.80
7234;DHT22;3658;47.992;10.158;2023-04-01T10:31:02;21.50;39.40
7234;DHT22;3658;47.992;10.158;2023-04-01T10:36:53;21.50;39.60
7234;DHT22;3658;47.992;10.158;2023-04-01T10:40:02;21.50;39.40
7234;DHT22;3658;47.992;10.158;2023-04-01T10:43:16;21.50;39.40
7234;DHT22;3658;47.992;10.158;2023-04-01T10:46:21;21.50;39.40
7234;DHT22;3658;47.992;10.158;2023-04-01T10:49:18;21.50;39.50
7234;DHT22;3658;47.992;10.158;2023-04-01T10:55:10;21.50;39.50
7234;DHT22;3658;47.992;10.158;2023-04-01T10:58:10;21.50;39.60
7234;DHT22;3658;47.992;10.158;2023-04-01T11:01:02;21.50;40.20
7234;DHT22;3658;47.992;10.158;2023-04-01T11:07:22;21.50;40.60
7234;DHT22;3658;47.992;10.158;2023-04-01T11:16:26;21.60;40.50
7234;DHT22;3658;47.992;10.158;2023-04-01T11:19:30;21.60;40.30
7234;DHT22;3658;47.992;10.158;2023-04-01T11:22:32;21.60;40.40
7234;DHT22;3658;47.992;10.158;2023-04-01T11:28:17;21.60;40.30
7234;DHT22;3658;47.992;10.158;2023-04-01T11:31:10;21.60;40.30
7234;DHT22;3658;47.992;10.158;2023-04-01T11:33:42;21.60;40.10
7234;DHT22;3658;47.992;10.158;2023-04-01T11:36:20;21.60;40.10
7234;DHT22;3658;47.992;10.158;2023-04-01T11:41:49;21.50;39.30
7234;DHT22;3658;47.992;10.158;2023-04-01T11:44:20;21.40;38.10
7234;DHT22;3658;47.992;10.158;2023-04-01T11:47:07;21.30;37.90
7234;DHT22;3658;47.992;10.158;2023-04-01T11:49:45;21.30;37.60
7234;DHT22;3658;47.992;10.158;2023-04-01T11:52:37;21.20;37.40
7234;DHT22;3658;47.992;10.158;2023-04-01T11:55:23;21.20;37.40
7234;DHT22;3658;47.992;10.158;2023-04-01T11:58:05;21.20;37.70
7234;DHT22;3658;47.992;10.158;2023-04-01T12:03:43;21.30;37.90
7234;DHT22;3658;47.992;10.158;2023-04-01T12:06:18;21.40;38.10
7234;DHT22;3658;47.992;10.158;2023-04-01T12:08:51;21.40;38.20
7234;DHT22;3658;47.992;10.158;2023-04-01T12:11:28;21.40;38.30
7234;DHT22;3658;47.992;10.158;2023-04-01T12:14:05;21.40;38.40
7234;DHT22;3658;47.992;10.158;2023-04-01T12:16:46;21.40;38.40
7234;DHT22;3658;47.992;10.158;2023-04-01T12:19:23;21.40;38.40
7234;DHT22;3658;47.992;10.158;2023-04-01T12:22:03;21.40;38.30
7234;DHT22;3658;47.992;10.158;2023-04-01T12:24:46;21.40;38.40
7234;DHT22;3658;47.992;10.158;2023-04-01T12:27:39;21.50;38.50
7234;DHT22;3658;47.992;10.158;2023-04-01T12:36:49;21.50;38.60
7234;DHT22;3658;47.992;10.158;2023-04-01T12:39:37;21.40;38.60
7234;DHT22;3658;47.992;10.158;2023-04-01T12:42:14;21.40;38.60
7234;DHT22;3658;47.992;10.158;2023-04-01T12:44:57;21.40;38.80
7234;DHT22;3658;47.992;10.158;2023-04-01T12:51:12;21.40;38.80
7234;DHT22;3658;47.992;10.158;2023-04-01T12:56:52;21.40;38.80
7234;DHT22;3658;47.992;10.158;2023-04-01T12:59:32;21.40;39.30
7234;DHT22;3658;47.992;10.158;2023-04-01T13:02:12;21.40;40.50
7234;DHT22;3658;47.992;10.158;2023-04-01T13:05:01;21.40;41.40
7234;DHT22;3658;47.992;10.158;2023-04-01T13:08:05;21.50;41.60
7234;DHT22;3658;47.992;10.158;2023-04-01T13:10:43;21.50;41.80
7234;DHT22;3658;47.992;10.158;2023-04-01T13:13:29;21.50;41.70
7234;DHT22;3658;47.992;10.158;2023-04-01T13:16:03;21.50;41.60
7234;DHT22;3658;47.992;10.158;2023-04-01T13:18:42;21.50;41.60
7234;DHT22;3658;47.992;10.158;2023-04-01T13:21:15;21.50;41.70
7234;DHT22;3658;47.992;10.158;2023-04-01T13:23:55;21.40;41.70
7234;DHT22;3658;47.992;10.158;2023-04-01T13:26:27;21.50;41.80
7234;DHT22;3658;47.992;10.158;2023-04-01T13:28:59;21.50;41.90
7234;DHT22;3658;47.992;10.158;2023-04-01T13:31:51;21.50;41.80
7234;DHT22;3658;47.992;10.158;2023-04-01T13:34:35;21.40;41.80
7234;DHT22;3658;47.992;10.158;2023-04-01T13:37:26;21.40;41.80
7234;DHT22;3658;47.992;10.158;2023-04-01T13:40:05;21.40;41.80
7234;DHT22;3658;47.992;10.158;2023-04-01T13:42:41;21.40;41.80
7234;DHT22;3658;47.992;10.158;2023-04-01T13:45:14;21.40;41.90
7234;DHT22;3658;47.992;10.158;2023-04-01T13:48:12;21.40;41.80
7234;DHT22;3658;47.992;10.158;2023-04-01T13:51:07;21.40;41.80
7234;DHT22;3658;47.992;10.158;2023-04-01T13:54:07;21.40;41.80
7234;DHT22;3658;47.992;10.158;2023-04-01T13:56:45;21.40;41.80
7234;DHT22;3658;47.992;10.158;2023-04-01T14:02:36;21.40;41.70
7234;DHT22;3658;47.992;10.158;2023-04-01T14:05:37;21.50;41.90
7234;DHT22;3658;47.992;10.158;2023-04-01T14:08:18;21.40;41.80
7234;DHT22;3658;47.992;10.158;2023-04-01T14:10:56;21.40;41.80
7234;DHT22;3658;47.992;10.158;2023-04-01T14:13:31;21.50;41.90
7234;DHT22;3658;47.992;10.158;2023-04-01T14:16:23;21.50;42.00
7234;DHT22;3658;47.992;10.158;2023-04-01T14:19:08;21.50;41.90
7234;DHT22;3658;47.992;10.158;2023-04-01T14:21:40;21.40;41.90
7234;DHT22;3658;47.992;10.158;2023-04-01T14:24:36;21.50;41.90
7234;DHT22;3658;47.992;10.158;2023-04-01T14:27:35;21.40;41.80
7234;DHT22;3658;47.992;10.158;2023-04-01T14:33:12;21.50;41.90
7234;DHT22;3658;47.992;10.158;2023-04-01T14:35:50;21.50;41.90
7234;DHT22;3658;47.992;10.158;2023-04-01T14:38:34;21.40;41.70
7234;DHT22;3658;47.992;10.158;2023-04-01T14:41:17;21.40;41.60
7234;DHT22;3658;47.992;10.158;2023-04-01T14:44:05;21.40;41.60
7234;DHT22;3658;47.992;10.158;2023-04-01T14:47:34;21.40;41.60
7234;DHT22;3658;47.992;10.158;2023-04-01T14:50:12;21.40;41.60
7234;DHT22;3658;47.992;10.158;2023-04-01T14:52:43;21.40;42.20
7234;DHT22;3658;47.992;10.158;2023-04-01T14:55:23;21.40;41.50
7234;DHT22;3658;47.992;10.158;2023-04-01T14:58:04;21.40;41.40
7234;DHT22;3658;47.992;10.158;2023-04-01T15:00:47;21.40;41.50
7234;DHT22;3658;47.992;10.158;2023-04-01T15:03:18;21.40;41.50
7234;DHT22;3658;47.992;10.158;2023-04-01T15:05:49;21.40;41.40
7234;DHT22;3658;47.992;10.158;2023-04-01T15:08:21;21.40;41.40
7234;DHT22;3658;47.992;10.158;2023-04-01T15:11:04;21.40;41.40
7234;DHT22;3658;47.992;10.158;2023-04-01T15:13:53;21.40;41.30
7234;DHT22;3658;47.992;10.158;2023-04-01T15:16:27;21.40;41.40
7234;DHT22;3658;47.992;10.158;2023-04-01T15:19:04;21.40;41.30
7234;DHT22;3658;47.992;10.158;2023-04-01T15:21:50;21.40;41.30
7234;DHT22;3658;47.992;10.158;2023-04-01T15:24:22;21.40;41.20
7234;DHT22;3658;47.992;10.158;2023-04-01T15:27:17;21.40;41.20
7234;DHT22;3658;47.992;10.158;2023-04-01T15:30:17;21.40;41.10
7234;DHT22;3658;47.992;10.158;2023-04-01T15:32:56;21.40;41.10
7234;DHT22;3658;47.992;10.158;2023-04-01T15:35:37;21.40;41.10
7234;DHT22;3658;47.992;10.158;2023-04-01T15:38:09;21.40;41.10
7234;DHT22;3658;47.992;10.158;2023-04-01T15:40:45;21.40;41.10
7234;DHT22;3658;47.992;10.158;2023-04-01T15:43:27;21.40;41.10
7234;DHT22;3658;47.992;10.158;2023-04-01T15:46:15;21.40;41.00
7234;DHT22;3658;47.992;10.158;2023-04-01T15:48:57;21.40;40.90
7234;DHT22;3658;47.992;10.158;2023-04-01T15:54:36;21.40;41.00
7234;DHT22;3658;47.992;10.158;2023-04-01T15:57:18;21.40;40.90
7234;DHT22;3658;47.992;10.158;2023-04-01T16:00:02;21.40;40.90
7234;DHT22;3658;47.992;10.158;2023-04-01T16:02:36;21.40;40.90
7234;DHT22;3658;47.992;10.158;2023-04-01T16:05:19;21.40;41.00
7234;DHT22;3658;47.992;10.158;2023-04-01T16:07:56;21.40;40.40
7234;DHT22;3658;47.992;10.158;2023-04-01T16:10:38;21.30;39.70
7234;DHT22;3658;47.992;10.158;2023-04-01T16:13:32;21.30;39.10
7234;DHT22;3658;47.992;10.158;2023-04-01T16:16:08;21.20;38.60
7234;DHT22;3658;47.992;10.158;2023-04-01T16:18:51;21.20;38.00
7234;DHT22;3658;47.992;10.158;2023-04-01T16:21:34;21.10;37.70
7234;DHT22;3658;47.992;10.158;2023-04-01T16:24:10;21.10;37.00
7234;DHT22;3658;47.992;10.158;2023-04-01T16:26:44;21.10;37.50
7234;DHT22;3658;47.992;10.158;2023-04-01T16:29:22;21.10;37.70
7234;DHT22;3658;47.992;10.158;2023-04-01T16:31:54;21.20;37.80
7234;DHT22;3658;47.992;10.158;2023-04-01T16:34:30;21.20;38.00
7234;DHT22;3658;47.992;10.158;2023-04-01T16:37:04;21.20;38.20
7234;DHT22;3658;47.992;10.158;2023-04-01T16:39:37;21.30;38.40
7234;DHT22;3658;47.992;10.158;2023-04-01T16:42:24;21.30;38.60
7234;DHT22;3658;47.992;10.158;2023-04-01T16:44:56;21.30;38.70
7234;DHT22;3658;47.992;10.158;2023-04-01T16:47:29;21.40;38.90
7234;DHT22;3658;47.992;10.158;2023-04-01T16:50:00;21.40;39.30
7234;DHT22;3658;47.992;10.158;2023-04-01T16:52:42;21.40;39.40
7234;DHT22;3658;47.992;10.158;2023-04-01T16:55:16;21.40;39.60
7234;DHT22;3658;47.992;10.158;2023-04-01T16:57:48;21.40;39.70
7234;DHT22;3658;47.992;10.158;2023-04-01T17:00:22;21.40;39.70
7234;DHT22;3658;47.992;10.158;2023-04-01T17:02:58;21.40;39.80
7234;DHT22;3658;47.992;10.158;2023-04-01T17:05:43;21.40;40.10
7234;DHT22;3658;47.992;10.158;2023-04-01T17:08:21;21.40;40.10
7234;DHT22;3658;47.992;10.158;2023-04-01T17:10:53;21.40;40.10
7234;DHT22;3658;47.992;10.158;2023-04-01T17:13:35;21.40;40.20
7234;DHT22;3658;47.992;10.158;2023-04-01T17:16:17;21.40;40.20
7234;DHT22;3658;47.992;10.158;2023-04-01T17:18:54;21.40;40.20
7234;DHT22;3658;47.992;10.158;2023-04-01T17:21:38;21.40;40.20
7234;DHT22;3658;47.992;10.158;2023-04-01T17:24:27;21.40;40.20
7234;DHT22;3658;47.992;10.158;2023-04-01T17:27:01;21.40;40.30
7234;DHT22;3658;47.992;10.158;2023-04-01T17:29:37;21.40;40.30
7234;DHT22;3658;47.992;10.158;2023-04-01T17:32:09;21.40;40.30
7234;DHT22;3658;47.992;10.158;2023-04-01T17:34:46;21.40;40.30
7234;DHT22;3658;47.992;10.158;2023-04-01T17:37:33;21.40;40.30
7234;DHT22;3658;47.992;10.158;2023-04-01T17:40:21;21.40;40.30
7234;DHT22;3658;47.992;10.158;2023-04-01T17:42:58;21.40;40.10
7234;DHT22;3658;47.992;10.158;2023-04-01T17:45:31;21.40;40.00
7234;DHT22;3658;47.992;10.158;2023-04-01T17:48:12;21.40;39.90
7234;DHT22;3658;47.992;10.158;2023-04-01T17:50:51;21.40;39.80
7234;DHT22;3658;47.992;10.158;2023-04-01T17:53:32;21.40;39.90
7234;DHT22;3658;47.992;10.158;2023-04-01T17:56:22;21.50;40.00
7234;DHT22;3658;47.992;10.158;2023-04-01T17:58:59;21.50;40.00
7234;DHT22;3658;47.992;10.158;2023-04-01T18:01:42;21.50;40.00
7234;DHT22;3658;47.992;10.158;2023-04-01T18:04:30;21.40;39.90
7234;DHT22;3658;47.992;10.158;2023-04-01T18:07:30;21.50;40.00